createdAt,value
2024-02-14T00:00:13.439Z,87.78
2024-02-14T00:01:13.428Z,87.47
2024-02-14T00:02:13.352Z,87.37
2024-02-14T00:03:13.879Z,87.16
2024-02-14T00:04:13.375Z,87.16
2024-02-14T00:05:13.369Z,87.37
2024-02-14T00:06:13.440Z,87.16
2024-02-14T00:07:13.319Z,87.47
2024-02-14T00:08:13.734Z,87.32
2024-02-14T00:09:13.375Z,86.80
2024-02-14T00:10:13.237Z,86.49
2024-02-14T00:11:13.276Z,86.08
2024-02-14T00:12:13.231Z,85.97
2024-02-14T00:13:13.209Z,86.29
2024-02-14T00:14:13.620Z,85.77
2024-02-14T00:15:13.236Z,85.97
2024-02-14T00:16:13.161Z,86.29
2024-02-14T00:17:13.175Z,85.87
2024-02-14T00:18:13.358Z,85.87
2024-02-14T00:19:13.251Z,86.02
2024-02-14T00:20:13.732Z,86.12
2024-02-14T00:21:13.228Z,86.33
2024-02-14T00:22:13.099Z,86.22
2024-02-14T00:23:13.149Z,86.33
2024-02-14T00:24:13.161Z,86.54
2024-02-14T00:25:13.844Z,86.43
2024-02-14T00:26:13.496Z,86.33
2024-02-14T00:27:13.057Z,86.33
2024-02-14T00:28:13.037Z,86.64
2024-02-14T00:29:13.044Z,86.64
2024-02-14T00:30:13.189Z,86.33
2024-02-14T00:31:13.035Z,86.33
2024-02-14T00:32:13.444Z,86.22
2024-02-14T00:33:13.229Z,86.33
2024-02-14T00:34:13.100Z,86.22
2024-02-14T00:35:13.011Z,86.08
2024-02-14T00:36:12.949Z,86.12
2024-02-14T00:37:12.947Z,86.12
2024-02-14T00:38:13.357Z,86.12
2024-02-14T00:39:12.896Z,86.12
2024-02-14T00:40:12.921Z,86.02
2024-02-14T00:41:12.904Z,86.02
2024-02-14T00:42:12.878Z,86.02
2024-02-14T00:43:12.936Z,86.02
2024-02-14T00:44:13.230Z,86.22
2024-02-14T00:45:12.930Z,86.54
2024-02-14T00:46:12.796Z,86.74
2024-02-14T00:47:12.821Z,86.95
2024-02-14T00:48:12.919Z,86.95
2024-02-14T00:49:13.337Z,86.64
2024-02-14T00:50:12.789Z,86.64
2024-02-14T00:51:12.792Z,86.64
2024-02-14T00:52:12.737Z,86.54
2024-02-14T00:53:12.765Z,86.64
2024-02-14T00:54:12.695Z,86.64
2024-02-14T00:55:13.169Z,86.74
2024-02-14T00:56:12.706Z,86.95
2024-02-14T00:57:12.745Z,86.54
2024-02-14T00:58:12.672Z,86.64
2024-02-14T00:59:12.644Z,86.43
2024-02-14T01:00:12.760Z,86.54
2024-02-14T01:01:13.171Z,86.33
2024-02-14T01:02:12.597Z,86.29
2024-02-14T01:03:12.663Z,86.08
2024-02-14T01:04:12.765Z,86.08
2024-02-14T01:05:12.631Z,85.87
2024-02-14T01:06:12.627Z,85.97
2024-02-14T01:07:12.999Z,85.97
2024-02-14T01:08:12.559Z,86.18
2024-02-14T01:09:12.587Z,85.97
2024-02-14T01:10:12.561Z,85.87
2024-02-14T01:11:12.532Z,85.97
2024-02-14T01:12:12.526Z,85.91
2024-02-14T01:13:12.895Z,86.02
2024-02-14T01:14:12.481Z,86.12
2024-02-14T01:15:12.526Z,86.33
2024-02-14T01:16:12.470Z,86.33
2024-02-14T01:17:12.433Z,86.12
2024-02-14T01:18:12.559Z,86.08
2024-02-14T01:19:13.052Z,86.60
2024-02-14T01:20:12.479Z,86.29
2024-02-14T01:21:12.418Z,86.08
2024-02-14T01:22:12.344Z,85.87
2024-02-14T01:23:12.348Z,85.87
2024-02-14T01:24:12.833Z,85.87
2024-02-14T01:25:12.312Z,85.77
2024-02-14T01:26:12.288Z,85.77
2024-02-14T01:27:12.378Z,85.77
2024-02-14T01:28:12.374Z,85.66
2024-02-14T01:29:12.731Z,85.56
2024-02-14T01:30:12.354Z,85.66
2024-02-14T01:31:12.262Z,85.66
2024-02-14T01:32:12.225Z,85.56
2024-02-14T01:33:12.479Z,85.77
2024-02-14T01:34:12.411Z,85.87
2024-02-14T01:35:12.597Z,85.97
2024-02-14T01:36:12.241Z,85.77
2024-02-14T01:37:12.174Z,85.66
2024-02-14T01:38:12.192Z,85.77
2024-02-14T01:39:12.163Z,85.77
2024-02-14T01:40:12.555Z,85.52
2024-02-14T01:41:12.089Z,85.42
2024-02-14T01:42:12.146Z,85.21
2024-02-14T01:43:12.105Z,85.00
2024-02-14T01:44:12.089Z,84.90
2024-02-14T01:45:12.485Z,85.00
2024-02-14T01:46:12.092Z,85.04
2024-02-14T01:47:12.131Z,85.11
2024-02-14T01:48:12.151Z,85.31
2024-02-14T01:49:12.156Z,85.31
2024-02-14T01:50:12.416Z,85.31
2024-02-14T01:51:12.021Z,85.21
2024-02-14T01:52:12.021Z,85.11
2024-02-14T01:53:11.970Z,84.80
2024-02-14T01:54:11.945Z,84.80
2024-02-14T01:55:12.396Z,85.00
2024-02-14T01:56:11.924Z,84.80
2024-02-14T01:57:12.050Z,84.59
2024-02-14T01:58:11.932Z,84.59
2024-02-14T01:59:11.889Z,84.80
2024-02-14T02:00:12.377Z,84.80
2024-02-14T02:01:11.891Z,84.80
2024-02-14T02:02:11.878Z,84.69
2024-02-14T02:03:11.954Z,84.69
2024-02-14T02:04:11.919Z,84.59
2024-02-14T02:05:11.845Z,84.48
2024-02-14T02:06:12.290Z,84.69
2024-02-14T02:07:11.799Z,84.80
2024-02-14T02:08:11.823Z,84.59
2024-02-14T02:09:11.872Z,84.48
2024-02-14T02:10:11.846Z,84.38
2024-02-14T02:11:12.158Z,84.48
2024-02-14T02:12:11.838Z,84.59
2024-02-14T02:13:11.832Z,84.69
2024-02-14T02:14:11.712Z,85.00
2024-02-14T02:15:11.706Z,85.00
2024-02-14T02:16:12.067Z,85.14
2024-02-14T02:17:11.694Z,85.00
2024-02-14T02:18:11.829Z,85.21
2024-02-14T02:19:11.759Z,85.11
2024-02-14T02:20:11.635Z,85.11
2024-02-14T02:21:12.114Z,85.31
2024-02-14T02:22:11.626Z,85.42
2024-02-14T02:23:11.606Z,85.42
2024-02-14T02:24:11.671Z,85.21
2024-02-14T02:25:11.551Z,85.11
2024-02-14T02:26:11.978Z,85.21
2024-02-14T02:27:11.575Z,85.00
2024-02-14T02:28:11.554Z,85.00
2024-02-14T02:29:11.557Z,85.00
2024-02-14T02:30:11.628Z,85.11
2024-02-14T02:31:11.787Z,84.90
2024-02-14T02:32:11.951Z,84.80
2024-02-14T02:33:11.518Z,84.80
2024-02-14T02:34:11.574Z,84.90
2024-02-14T02:35:11.454Z,84.80
2024-02-14T02:36:11.500Z,85.00
2024-02-14T02:37:11.461Z,84.59
2024-02-14T02:38:11.802Z,84.90
2024-02-14T02:39:11.468Z,84.80
2024-02-14T02:40:11.435Z,84.90
2024-02-14T02:41:11.365Z,84.80
2024-02-14T02:42:11.402Z,84.80
2024-02-14T02:43:11.392Z,85.00
2024-02-14T02:44:11.779Z,85.21
2024-02-14T02:45:11.336Z,85.25
2024-02-14T02:46:11.300Z,85.25
2024-02-14T02:47:11.291Z,85.25
2024-02-14T02:48:11.347Z,85.35
2024-02-14T02:49:11.848Z,85.46
2024-02-14T02:50:11.252Z,85.21
2024-02-14T02:51:11.280Z,85.35
2024-02-14T02:52:11.240Z,85.35
2024-02-14T02:53:11.194Z,85.56
2024-02-14T02:54:11.249Z,85.66
2024-02-14T02:55:11.684Z,85.63
2024-02-14T02:56:11.190Z,85.52
2024-02-14T02:57:11.195Z,85.42
2024-02-14T02:58:11.209Z,85.63
2024-02-14T02:59:11.168Z,85.63
2024-02-14T03:00:11.748Z,85.52
2024-02-14T03:01:11.125Z,85.52
2024-02-14T03:02:11.127Z,85.52
2024-02-14T03:03:11.242Z,85.83
2024-02-14T03:04:11.089Z,85.42
2024-02-14T03:05:11.959Z,85.42
2024-02-14T03:06:11.112Z,85.31
2024-02-14T03:07:11.108Z,85.11
2024-02-14T03:08:11.045Z,85.00
2024-02-14T03:09:11.088Z,85.21
2024-02-14T03:10:11.047Z,85.21
2024-02-14T03:11:11.432Z,85.31
2024-02-14T03:12:11.039Z,84.90
2024-02-14T03:13:10.932Z,84.80
2024-02-14T03:14:10.969Z,85.00
2024-02-14T03:15:10.981Z,84.90
2024-02-14T03:16:10.933Z,84.59
2024-02-14T03:17:11.413Z,84.59
2024-02-14T03:18:11.120Z,84.80
2024-02-14T03:19:10.948Z,84.90
2024-02-14T03:20:12.284Z,85.21
2024-02-14T03:21:10.893Z,85.11
2024-02-14T03:22:11.267Z,85.11
2024-02-14T03:23:10.891Z,85.31
2024-02-14T03:24:10.961Z,85.00
2024-02-14T03:25:10.825Z,85.00
2024-02-14T03:26:10.804Z,85.00
2024-02-14T03:27:11.312Z,84.90
2024-02-14T03:28:10.817Z,85.21
2024-02-14T03:29:10.747Z,85.42
2024-02-14T03:30:10.885Z,85.31
2024-02-14T03:31:10.718Z,85.21
2024-02-14T03:32:11.158Z,85.11
2024-02-14T03:33:10.810Z,85.00
2024-02-14T03:34:10.814Z,84.96
2024-02-14T03:35:10.701Z,84.75
2024-02-14T03:36:10.696Z,84.75
2024-02-14T03:37:10.660Z,84.55
2024-02-14T03:38:11.166Z,84.23
2024-02-14T03:39:10.630Z,84.44
2024-02-14T03:40:10.600Z,84.44
2024-02-14T03:41:10.609Z,84.13
2024-02-14T03:42:10.666Z,84.03
2024-02-14T03:43:11.002Z,84.03
2024-02-14T03:44:10.553Z,84.03
2024-02-14T03:45:10.935Z,84.03
2024-02-14T03:46:10.549Z,84.23
2024-02-14T03:47:10.512Z,84.13
2024-02-14T03:48:10.591Z,84.03
2024-02-14T03:49:11.051Z,83.83
2024-02-14T03:50:10.477Z,83.72
2024-02-14T03:51:10.506Z,83.72
2024-02-14T03:52:10.489Z,83.93
2024-02-14T03:53:10.458Z,83.72
2024-02-14T03:54:10.576Z,83.93
2024-02-14T03:55:10.817Z,83.97
2024-02-14T03:56:10.430Z,83.97
2024-02-14T03:57:10.593Z,84.17
2024-02-14T03:58:10.373Z,84.48
2024-02-14T03:59:10.353Z,84.59
2024-02-14T04:00:10.429Z,84.69
2024-02-14T04:01:10.798Z,84.80
2024-02-14T04:02:10.369Z,84.80
2024-02-14T04:03:10.424Z,84.69
2024-02-14T04:04:10.320Z,84.23
2024-02-14T04:05:11.268Z,84.23
2024-02-14T04:06:10.741Z,84.34
2024-02-14T04:07:10.325Z,84.23
2024-02-14T04:08:10.271Z,84.44
2024-02-14T04:09:10.275Z,84.59
2024-02-14T04:10:11.234Z,84.59
2024-02-14T04:11:10.266Z,84.38
2024-02-14T04:12:10.622Z,84.38
2024-02-14T04:13:10.162Z,84.38
2024-02-14T04:14:10.171Z,84.48
2024-02-14T04:15:10.280Z,84.80
2024-02-14T04:16:10.215Z,85.11
2024-02-14T04:17:10.145Z,85.21
2024-02-14T04:18:10.629Z,85.25
2024-02-14T04:19:10.305Z,85.21
2024-02-14T04:20:10.101Z,85.14
2024-02-14T04:21:10.259Z,85.25
2024-02-14T04:22:10.085Z,85.66
2024-02-14T04:23:10.075Z,85.66
2024-02-14T04:24:10.545Z,85.77
2024-02-14T04:25:10.076Z,85.66
2024-02-14T04:26:09.995Z,85.46
2024-02-14T04:27:10.054Z,85.46
2024-02-14T04:28:09.997Z,85.56
2024-02-14T04:29:10.804Z,85.63
2024-02-14T04:30:10.138Z,85.66
2024-02-14T04:31:09.959Z,85.73
2024-02-14T04:32:09.938Z,85.83
2024-02-14T04:33:13.704Z,85.83
2024-02-14T04:34:10.468Z,85.83
2024-02-14T04:35:10.098Z,85.83
2024-02-14T04:36:09.992Z,85.52
2024-02-14T04:37:09.870Z,85.42
2024-02-14T04:38:09.909Z,85.31
2024-02-14T04:39:09.957Z,85.31
2024-02-14T04:40:10.256Z,85.17
2024-02-14T04:41:09.895Z,84.86
2024-02-14T04:42:09.988Z,84.96
2024-02-14T04:43:09.900Z,84.96
2024-02-14T04:44:09.859Z,84.96
2024-02-14T04:45:10.381Z,84.86
2024-02-14T04:46:09.807Z,84.65
2024-02-14T04:47:09.741Z,84.75
2024-02-14T04:48:09.821Z,84.65
2024-02-14T04:49:09.940Z,84.34
2024-02-14T04:50:09.737Z,84.44
2024-02-14T04:51:10.262Z,84.55
2024-02-14T04:52:09.695Z,84.75
2024-02-14T04:53:09.669Z,84.96
2024-02-14T04:54:09.709Z,85.06
2024-02-14T04:55:09.706Z,85.27
2024-02-14T04:56:10.029Z,85.17
2024-02-14T04:57:09.637Z,84.96
2024-02-14T04:58:09.648Z,85.06
2024-02-14T04:59:09.605Z,85.06
2024-02-14T05:00:09.615Z,84.75
2024-02-14T05:01:10.057Z,84.65
2024-02-14T05:02:09.563Z,84.65
2024-02-14T05:03:09.629Z,84.86
2024-02-14T05:04:09.580Z,84.96
2024-02-14T05:05:09.579Z,84.75
2024-02-14T05:06:09.579Z,84.75
2024-02-14T05:07:10.012Z,84.44
2024-02-14T05:08:09.503Z,84.34
2024-02-14T05:09:10.191Z,84.65
2024-02-14T05:10:09.439Z,84.55
2024-02-14T05:11:09.482Z,84.75
2024-02-14T05:12:09.552Z,84.86
2024-02-14T05:13:09.830Z,84.96
2024-02-14T05:14:09.406Z,84.96
2024-02-14T05:15:09.404Z,85.06
2024-02-14T05:16:09.431Z,85.17
2024-02-14T05:17:09.361Z,84.96
2024-02-14T05:18:10.065Z,85.06
2024-02-14T05:19:09.486Z,84.96
2024-02-14T05:20:09.304Z,84.86
2024-02-14T05:21:09.520Z,84.75
2024-02-14T05:22:09.313Z,84.75
2024-02-14T05:23:09.715Z,84.86
2024-02-14T05:24:09.345Z,84.75
2024-02-14T05:25:09.298Z,84.86
2024-02-14T05:26:09.238Z,84.96
2024-02-14T05:27:09.270Z,84.86
2024-02-14T05:28:09.246Z,84.86
2024-02-14T05:29:09.590Z,85.17
2024-02-14T05:30:09.260Z,85.27
2024-02-14T05:31:09.204Z,85.17
2024-02-14T05:32:09.207Z,85.17
2024-02-14T05:33:09.232Z,84.96
2024-02-14T05:34:09.768Z,84.65
2024-02-14T05:35:09.179Z,84.72
2024-02-14T05:36:09.193Z,84.61
2024-02-14T05:37:09.098Z,84.61
2024-02-14T05:38:09.064Z,84.51
2024-02-14T05:39:09.632Z,84.72
2024-02-14T05:40:09.110Z,84.30
2024-02-14T05:41:09.118Z,84.41
2024-02-14T05:42:09.123Z,84.41
2024-02-14T05:43:09.028Z,84.41
2024-02-14T05:44:09.428Z,84.51
2024-02-14T05:45:09.054Z,84.51
2024-02-14T05:46:09.019Z,84.41
2024-02-14T05:47:08.963Z,84.72
2024-02-14T05:48:09.038Z,84.51
2024-02-14T05:49:09.208Z,84.41
2024-02-14T05:50:09.376Z,84.41
2024-02-14T05:51:09.244Z,84.72
2024-02-14T05:52:08.949Z,84.72
2024-02-14T05:53:08.897Z,84.41
2024-02-14T05:54:09.037Z,84.61
2024-02-14T05:55:08.871Z,84.61
2024-02-14T05:56:09.441Z,84.51
2024-02-14T05:57:08.931Z,84.41
2024-02-14T05:58:08.809Z,84.61
2024-02-14T05:59:08.869Z,84.72
2024-02-14T06:00:08.912Z,84.72
2024-02-14T06:01:08.938Z,84.51
2024-02-14T06:02:09.235Z,84.41
2024-02-14T06:03:08.805Z,84.51
2024-02-14T06:04:08.846Z,84.41
2024-02-14T06:05:08.756Z,84.34
2024-02-14T06:06:08.794Z,84.65
2024-02-14T06:07:08.708Z,84.92
2024-02-14T06:08:09.124Z,84.92
2024-02-14T06:09:08.841Z,84.72
2024-02-14T06:10:08.673Z,84.61
2024-02-14T06:11:08.670Z,84.61
2024-02-14T06:12:08.738Z,84.82
2024-02-14T06:13:09.092Z,84.92
2024-02-14T06:14:08.770Z,84.61
2024-02-14T06:15:08.812Z,84.72
2024-02-14T06:16:08.663Z,84.82
2024-02-14T06:17:08.650Z,84.61
2024-02-14T06:18:08.637Z,85.03
2024-02-14T06:19:09.017Z,84.68
2024-02-14T06:20:09.372Z,84.27
2024-02-14T06:21:08.585Z,84.16
2024-02-14T06:22:08.573Z,84.06
2024-02-14T06:23:08.520Z,84.06
2024-02-14T06:24:08.978Z,84.16
2024-02-14T06:25:08.518Z,84.47
2024-02-14T06:26:08.582Z,84.37
2024-02-14T06:27:08.546Z,84.37
2024-02-14T06:28:08.452Z,84.27
2024-02-14T06:29:08.890Z,84.27
2024-02-14T06:30:08.907Z,84.27
2024-02-14T06:31:08.438Z,84.47
2024-02-14T06:32:08.512Z,84.16
2024-02-14T06:33:08.520Z,84.16
2024-02-14T06:34:08.686Z,84.27
2024-02-14T06:35:08.922Z,84.37
2024-02-14T06:36:08.390Z,84.06
2024-02-14T06:37:08.381Z,84.06
2024-02-14T06:38:08.316Z,84.27
2024-02-14T06:39:08.354Z,84.16
2024-02-14T06:40:08.291Z,84.06
2024-02-14T06:41:08.704Z,84.06
2024-02-14T06:42:08.326Z,84.16
2024-02-14T06:43:08.233Z,84.06
2024-02-14T06:44:08.220Z,84.16
2024-02-14T06:45:08.311Z,84.16
2024-02-14T06:46:08.251Z,84.06
2024-02-14T06:47:08.758Z,83.75
2024-02-14T06:48:08.310Z,84.06
2024-02-14T06:49:08.553Z,83.85
2024-02-14T06:50:08.905Z,83.75
2024-02-14T06:51:08.296Z,83.91
2024-02-14T06:52:08.191Z,83.71
2024-02-14T06:53:08.517Z,83.71
2024-02-14T06:54:08.093Z,83.61
2024-02-14T06:55:08.096Z,83.71
2024-02-14T06:56:08.081Z,83.50
2024-02-14T06:57:08.139Z,83.29
2024-02-14T06:58:08.452Z,83.19
2024-02-14T06:59:08.046Z,83.29
2024-02-14T07:00:08.379Z,83.19
2024-02-14T07:01:08.076Z,83.09
2024-02-14T07:02:13.430Z,82.98
2024-02-14T07:03:09.991Z,83.09
2024-02-14T07:04:08.007Z,82.98
2024-02-14T07:05:07.945Z,82.88
2024-02-14T07:06:08.138Z,82.67
2024-02-14T07:07:08.048Z,82.78
2024-02-14T07:08:07.904Z,82.78
2024-02-14T07:09:10.179Z,82.88
2024-02-14T07:10:07.942Z,82.88
2024-02-14T07:11:07.936Z,82.67
2024-02-14T07:12:07.911Z,82.64
2024-02-14T07:13:07.874Z,82.57
2024-02-14T07:14:08.299Z,82.64
2024-02-14T07:15:07.939Z,82.84
2024-02-14T07:16:10.134Z,82.64
2024-02-14T07:17:07.877Z,82.64
2024-02-14T07:18:07.928Z,82.43
2024-02-14T07:19:07.962Z,82.32
2024-02-14T07:20:08.262Z,82.43
2024-02-14T07:21:07.795Z,82.43
2024-02-14T07:22:07.765Z,82.43
2024-02-14T07:23:07.740Z,82.43
2024-02-14T07:24:08.074Z,82.43
2024-02-14T07:25:08.145Z,82.01
2024-02-14T07:26:07.689Z,81.91
2024-02-14T07:27:09.814Z,81.91
2024-02-14T07:28:07.759Z,82.01
2024-02-14T07:29:08.086Z,82.22
2024-02-14T07:30:08.660Z,81.87
2024-02-14T07:31:07.876Z,81.77
2024-02-14T07:32:08.089Z,81.56
2024-02-14T07:33:08.083Z,81.70
2024-02-14T07:34:09.992Z,81.70
2024-02-14T07:35:08.196Z,81.70
2024-02-14T07:36:07.591Z,81.81
2024-02-14T07:37:07.812Z,81.91
2024-02-14T07:38:08.173Z,82.01
2024-02-14T07:39:07.566Z,81.91
2024-02-14T07:40:07.965Z,82.32
2024-02-14T07:41:07.526Z,81.91
2024-02-14T07:42:07.561Z,82.12
2024-02-14T07:43:07.576Z,82.22
2024-02-14T07:44:07.509Z,82.36
2024-02-14T07:45:07.921Z,82.46
2024-02-14T07:46:07.423Z,82.67
2024-02-14T07:47:07.983Z,82.78
2024-02-14T07:48:07.495Z,82.98
2024-02-14T07:49:07.576Z,82.98
2024-02-14T07:50:07.886Z,83.09
2024-02-14T07:51:07.429Z,82.98
2024-02-14T07:52:07.366Z,83.29
2024-02-14T07:53:07.530Z,83.40
2024-02-14T07:54:07.422Z,83.40
2024-02-14T07:55:43.166Z,83.71
2024-02-14T07:56:07.303Z,84.19
2024-02-14T07:57:07.319Z,84.70
2024-02-14T07:58:07.315Z,84.91
2024-02-14T07:59:07.454Z,85.22
2024-02-14T08:00:07.300Z,85.22
2024-02-14T08:01:07.744Z,85.74
2024-02-14T08:02:07.212Z,85.74
2024-02-14T08:03:07.422Z,86.15
2024-02-14T08:04:07.334Z,85.39
2024-02-14T08:05:07.905Z,85.18
2024-02-14T08:06:07.647Z,85.18
2024-02-14T08:07:07.247Z,84.97
2024-02-14T08:08:07.142Z,84.66
2024-02-14T08:09:07.273Z,84.77
2024-02-14T08:10:07.182Z,83.73
2024-02-14T08:11:07.092Z,84.25
2024-02-14T08:12:07.703Z,85.39
2024-02-14T08:13:07.084Z,86.52
2024-02-14T08:14:07.104Z,86.42
2024-02-14T08:15:07.349Z,86.21
2024-02-14T08:16:07.078Z,87.41
2024-02-14T08:17:07.495Z,87.93
2024-02-14T08:18:10.118Z,88.04
2024-02-14T08:19:07.307Z,88.65
2024-02-14T08:20:07.168Z,88.96
2024-02-14T08:21:07.097Z,88.45
2024-02-14T08:22:07.034Z,88.86
2024-02-14T08:23:07.464Z,89.38
2024-02-14T08:24:07.064Z,89.69
2024-02-14T08:25:06.987Z,90.20
2024-02-14T08:26:07.019Z,89.48
2024-02-14T08:27:06.957Z,89.17
2024-02-14T08:28:07.338Z,89.79
2024-02-14T08:29:06.999Z,89.59
2024-02-14T08:30:06.957Z,89.59
2024-02-14T08:31:06.867Z,89.89
2024-02-14T08:32:07.012Z,88.76
2024-02-14T08:33:07.123Z,88.34
2024-02-14T08:34:07.442Z,88.14
2024-02-14T08:35:06.841Z,88.55
2024-02-14T08:36:06.930Z,88.55
2024-02-14T08:37:06.769Z,89.07
2024-02-14T08:38:06.785Z,89.07
2024-02-14T08:39:07.272Z,89.59
2024-02-14T08:40:06.764Z,89.48
2024-02-14T08:41:06.748Z,89.07
2024-02-14T08:42:06.790Z,89.48
2024-02-14T08:43:06.702Z,88.86
2024-02-14T08:44:07.127Z,90.10
2024-02-14T08:45:06.716Z,89.89
2024-02-14T08:46:06.679Z,89.03
2024-02-14T08:47:06.679Z,89.75
2024-02-14T08:48:06.755Z,89.44
2024-02-14T08:49:08.944Z,89.65
2024-02-14T08:50:06.624Z,89.23
2024-02-14T08:51:06.682Z,88.71
2024-02-14T08:52:06.737Z,88.71
2024-02-14T08:53:06.606Z,89.23
2024-02-14T08:54:07.064Z,88.61
2024-02-14T08:55:07.345Z,88.41
2024-02-14T08:56:06.523Z,88.51
2024-02-14T08:57:06.638Z,88.61
2024-02-14T08:58:06.552Z,89.13
2024-02-14T08:59:06.556Z,90.37
2024-02-14T09:00:06.940Z,90.78
2024-02-14T09:01:13.579Z,90.78
2024-02-14T09:02:07.965Z,90.89
2024-02-14T09:03:06.610Z,91.09
2024-02-14T09:04:06.525Z,91.61
2024-02-14T09:05:06.845Z,91.71
2024-02-14T09:06:06.525Z,92.02
2024-02-14T09:07:06.431Z,91.09
2024-02-14T09:08:06.385Z,90.99
2024-02-14T09:09:06.609Z,91.20
2024-02-14T09:10:06.853Z,91.61
2024-02-14T09:11:06.337Z,91.92
2024-02-14T09:12:06.419Z,92.54
2024-02-14T09:13:06.302Z,92.13
2024-02-14T09:14:06.370Z,91.82
2024-02-14T09:15:06.832Z,91.71
2024-02-14T09:16:06.282Z,91.20
2024-02-14T09:17:06.358Z,91.71
2024-02-14T09:18:06.297Z,92.13
2024-02-14T09:19:06.283Z,92.44
2024-02-14T09:20:06.720Z,92.64
2024-02-14T09:21:06.495Z,92.54
2024-02-14T09:22:06.213Z,92.64
2024-02-14T09:23:06.219Z,92.85
2024-02-14T09:24:06.249Z,93.37
2024-02-14T09:25:06.242Z,93.37
2024-02-14T09:26:06.583Z,93.93
2024-02-14T09:27:06.194Z,94.44
2024-02-14T09:28:06.152Z,94.85
2024-02-14T09:29:06.115Z,95.17
2024-02-14T09:30:06.150Z,95.48
2024-02-14T09:31:06.078Z,95.78
2024-02-14T09:32:06.495Z,95.99
2024-02-14T09:33:06.536Z,96.82
2024-02-14T09:34:06.225Z,97.13
2024-02-14T09:35:06.281Z,97.13
2024-02-14T09:36:06.101Z,97.54
2024-02-14T09:37:06.567Z,97.85
2024-02-14T09:38:06.082Z,97.85
2024-02-14T09:39:06.049Z,97.96
2024-02-14T09:40:05.966Z,98.16
2024-02-14T09:41:06.039Z,98.37
2024-02-14T09:42:05.952Z,98.57
2024-02-14T09:43:06.392Z,98.78
2024-02-14T09:44:05.916Z,98.99
2024-02-14T09:45:06.128Z,98.99
2024-02-14T09:46:05.931Z,99.09
2024-02-14T09:47:05.855Z,99.09
2024-02-14T09:48:06.160Z,99.30
2024-02-14T09:49:06.548Z,99.40
2024-02-14T09:50:05.869Z,99.61
2024-02-14T09:51:05.939Z,99.99
2024-02-14T09:52:05.827Z,99.99
2024-02-14T09:53:07.731Z,99.99
2024-02-14T09:54:05.829Z,99.99
2024-02-14T09:55:06.229Z,99.99
2024-02-14T09:56:05.777Z,99.99
2024-02-14T09:57:05.851Z,99.99
2024-02-14T09:58:05.744Z,99.99
2024-02-14T09:59:05.716Z,99.99
2024-02-14T10:00:05.762Z,99.99
2024-02-14T10:01:06.156Z,99.99
2024-02-14T10:02:05.772Z,99.99
2024-02-14T10:03:05.883Z,99.99
2024-02-14T10:04:05.734Z,99.99
2024-02-14T10:05:05.982Z,99.99
2024-02-14T10:06:06.163Z,99.99
2024-02-14T10:07:06.244Z,99.99
2024-02-14T10:08:05.602Z,99.99
2024-02-14T10:09:05.847Z,99.99
2024-02-14T10:10:05.647Z,99.99
2024-02-14T10:11:05.555Z,99.99
2024-02-14T10:12:05.606Z,99.99
2024-02-14T10:13:06.084Z,99.99
2024-02-14T10:14:06.070Z,99.99
2024-02-14T10:15:05.622Z,99.99
2024-02-14T10:16:05.490Z,99.99
2024-02-14T10:17:05.536Z,99.99
2024-02-14T10:18:06.050Z,99.99
2024-02-14T10:19:05.737Z,99.99
2024-02-14T10:20:05.603Z,99.99
2024-02-14T10:21:05.539Z,99.99
2024-02-14T10:22:05.448Z,99.99
2024-02-14T10:23:05.481Z,99.99
2024-02-14T10:24:05.924Z,99.99
2024-02-14T10:25:05.405Z,99.99
2024-02-14T10:26:05.499Z,99.99
2024-02-14T10:27:05.494Z,99.99
2024-02-14T10:28:05.401Z,99.99
2024-02-14T10:29:05.426Z,99.99
2024-02-14T10:30:05.954Z,99.99
2024-02-14T10:31:05.410Z,99.99
2024-02-14T10:32:05.375Z,99.99
2024-02-14T10:33:14.020Z,99.99
2024-02-14T10:34:06.876Z,99.99
2024-02-14T10:35:05.747Z,99.99
2024-02-14T10:36:05.435Z,99.99
2024-02-14T10:37:05.253Z,99.99
2024-02-14T10:38:05.279Z,99.99
2024-02-14T10:39:05.259Z,99.99
2024-02-14T10:40:05.267Z,99.99
2024-02-14T10:41:07.529Z,99.99
2024-02-14T10:42:05.227Z,99.99
2024-02-14T10:43:05.227Z,99.99
2024-02-14T10:44:05.171Z,99.99
2024-02-14T10:45:05.201Z,99.99
2024-02-14T10:46:05.197Z,99.99
2024-02-14T10:47:05.516Z,99.99
2024-02-14T10:48:05.235Z,99.99
2024-02-14T10:49:05.284Z,99.99
2024-02-14T10:50:05.363Z,99.99
2024-02-14T10:51:05.251Z,99.99
2024-02-14T10:52:05.452Z,99.99
2024-02-14T10:53:05.082Z,99.99
2024-02-14T10:54:05.131Z,99.99
2024-02-14T10:55:05.107Z,99.99
2024-02-14T10:56:05.074Z,99.99
2024-02-14T10:57:05.061Z,99.99
2024-02-14T10:58:05.388Z,99.99
2024-02-14T10:59:05.001Z,99.99
2024-02-14T11:00:05.027Z,99.99
2024-02-14T11:01:05.017Z,99.99
2024-02-14T11:02:04.986Z,99.99
2024-02-14T11:03:05.515Z,99.99
2024-02-14T11:04:04.923Z,99.99
2024-02-14T11:05:04.926Z,99.99
2024-02-14T11:06:05.788Z,99.99
2024-02-14T11:07:04.966Z,99.99
2024-02-14T11:08:05.237Z,99.99
2024-02-14T11:09:04.975Z,99.99
2024-02-14T11:10:05.004Z,99.99
2024-02-14T11:11:04.815Z,99.99
2024-02-14T11:12:04.908Z,99.99
2024-02-14T11:13:05.252Z,99.99
2024-02-14T11:14:04.841Z,99.99
2024-02-14T11:15:04.810Z,99.99
2024-02-14T11:16:04.774Z,99.99
2024-02-14T11:17:04.742Z,99.99
2024-02-14T11:18:05.394Z,99.99
2024-02-14T11:19:04.912Z,99.99
2024-02-14T11:20:04.921Z,99.99
2024-02-14T11:21:04.966Z,99.99
2024-02-14T11:22:04.678Z,99.99
2024-02-14T11:23:04.761Z,99.99
2024-02-14T11:24:05.137Z,99.99
2024-02-14T11:25:04.629Z,99.99
2024-02-14T11:26:04.664Z,99.99
2024-02-14T11:27:04.717Z,99.99
2024-02-14T11:28:04.713Z,99.99
2024-02-14T11:29:05.026Z,99.99
2024-02-14T11:30:04.999Z,99.99
2024-02-14T11:31:04.866Z,99.99
2024-02-14T11:32:04.630Z,99.99
2024-02-14T11:33:04.657Z,99.99
2024-02-14T11:34:05.409Z,99.99
2024-02-14T11:35:04.620Z,99.99
2024-02-14T11:36:04.576Z,99.99
2024-02-14T11:37:04.475Z,99.99
2024-02-14T11:38:04.484Z,99.99
2024-02-14T11:39:04.472Z,99.99
2024-02-14T11:40:04.872Z,99.99
2024-02-14T11:41:04.557Z,99.99
2024-02-14T11:42:04.489Z,99.99
2024-02-14T11:43:04.434Z,99.99
2024-02-14T11:44:04.623Z,99.99
2024-02-14T11:45:04.426Z,99.99
2024-02-14T11:46:04.816Z,99.99
2024-02-14T11:47:04.348Z,99.99
2024-02-14T11:48:04.485Z,99.99
2024-02-14T11:49:04.529Z,99.99
2024-02-14T11:50:04.447Z,99.99
2024-02-14T11:51:04.395Z,99.99
2024-02-14T11:52:04.850Z,99.99
2024-02-14T11:53:04.258Z,99.99
2024-02-14T11:54:04.389Z,99.99
2024-02-14T11:55:05.138Z,99.99
2024-02-14T11:56:04.378Z,99.99
2024-02-14T11:57:04.728Z,99.99
2024-02-14T11:58:04.219Z,99.99
2024-02-14T11:59:04.313Z,99.99
2024-02-14T12:00:04.359Z,99.99
2024-02-14T12:01:04.201Z,99.99
2024-02-14T12:02:04.177Z,99.99
2024-02-14T12:03:04.741Z,99.99
2024-02-14T12:04:04.265Z,99.99
2024-02-14T12:05:04.387Z,99.99
2024-02-14T12:06:04.271Z,99.99
2024-02-14T12:07:04.290Z,99.99
2024-02-14T12:08:04.111Z,99.99
2024-02-14T12:09:04.522Z,99.99
2024-02-14T12:10:04.083Z,99.99
2024-02-14T12:11:04.058Z,99.99
2024-02-14T12:12:04.170Z,99.99
2024-02-14T12:13:03.988Z,99.99
2024-02-14T12:14:04.455Z,99.99
2024-02-14T12:15:04.057Z,99.99
2024-02-14T12:16:03.996Z,99.99
2024-02-14T12:17:04.322Z,99.99
2024-02-14T12:18:04.199Z,99.99
2024-02-14T12:19:04.424Z,99.99
2024-02-14T12:20:04.011Z,99.99
2024-02-14T12:21:03.982Z,99.99
2024-02-14T12:22:03.897Z,99.99
2024-02-14T12:23:03.935Z,99.99
2024-02-14T12:24:04.369Z,99.99
2024-02-14T12:25:03.860Z,99.99
2024-02-14T12:26:03.918Z,99.99
2024-02-14T12:27:03.870Z,99.99
2024-02-14T12:28:03.837Z,99.99
2024-02-14T12:29:04.245Z,99.99
2024-02-14T12:30:03.989Z,99.99
2024-02-14T12:31:03.883Z,99.99
2024-02-14T12:32:03.795Z,99.99
2024-02-14T12:33:04.100Z,99.99
2024-02-14T12:34:04.223Z,99.99
2024-02-14T12:35:04.297Z,99.99
2024-02-14T12:36:03.916Z,99.99
2024-02-14T12:37:03.828Z,99.99
2024-02-14T12:38:03.799Z,99.99
2024-02-14T12:39:03.984Z,99.99
2024-02-14T12:40:04.095Z,99.99
2024-02-14T12:41:03.687Z,99.99
2024-02-14T12:42:03.777Z,99.99
2024-02-14T12:43:03.687Z,99.99
2024-02-14T12:44:03.652Z,99.99
2024-02-14T12:45:03.670Z,99.99
2024-02-14T12:46:04.015Z,99.99
2024-02-14T12:47:03.594Z,99.99
2024-02-14T12:48:03.647Z,99.99
2024-02-14T12:49:03.687Z,99.99
2024-02-14T12:50:03.617Z,99.99
2024-02-14T12:51:03.965Z,99.99
2024-02-14T12:52:03.546Z,99.99